Time;durP1;ratioP1;P1;durP2;ratioP2;P2;SDS_P1;SDS_P2;PMS_P1;PMS_P2;Temp;Humidity;BMP_temperature;BMP_pressure;BME280_temperature;BME280_humidity;BME280_pressure;Samples;Min_cycle;Max_cycle;Signal;HPM_P1;HPM_P2
2022/08/20 00:01:07;;;;;;;6.5;3.9;;;;;;;17.85;96.9375;938.5926;;;;
2022/08/20 00:03:32;;;;;;;5;3.9;;;;;;;17.81;96.99902;938.6379;;;;
2022/08/20 00:06:00;;;;;;;5;4.2;;;;;;;17.87;97.23145;938.6164;;;;
2022/08/20 00:08:25;;;;;;;5.2;4.1;;;;;;;17.82;97.7207;938.6373;;;;
2022/08/20 00:10:51;;;;;;;5.5;4.2;;;;;;;17.83;97.14063;938.6155;;;;
2022/08/20 00:13:17;;;;;;;4.9;4.2;;;;;;;17.83;96.70117;938.6356;;;;
2022/08/20 00:15:42;;;;;;;5;4.5;;;;;;;17.77;97.38379;938.6443;;;;
2022/08/20 00:18:09;;;;;;;5;4.5;;;;;;;17.82;97.16406;938.6483;;;;
2022/08/20 00:20:34;;;;;;;5.6;4.8;;;;;;;17.81;96.66113;938.5945;;;;
2022/08/20 00:23:00;;;;;;;5.1;4.2;;;;;;;17.86;95.81348;938.6295;;;;
2022/08/20 00:25:24;;;;;;;5.8;4.9;;;;;;;17.63;97.27246;938.5845;;;;
2022/08/20 00:27:52;;;;;;;5;4.5;;;;;;;17.61;98.12793;938.5483;;;;
2022/08/20 00:30:17;;;;;;;5.3;4.7;;;;;;;17.67;97.88477;938.6241;;;;
2022/08/20 00:33:24;;;;;;;5.8;5.2;;;;;;;17.7;97.56543;938.6319;;;;
2022/08/20 00:35:55;;;;;;;4.8;4.3;;;;;;;17.76;96.62988;938.5808;;;;
2022/08/20 00:39:27;;;;;;;5.1;4.6;;;;;;;17.74;97.06445;938.5184;;;;
2022/08/20 00:41:40;;;;;;;6.2;5.1;;;;;;;17.65;97.20703;938.5221;;;;
2022/08/20 00:44:08;;;;;;;5.4;4.5;;;;;;;17.64;96.48535;938.4885;;;;
2022/08/20 00:46:32;;;;;;;5;4.6;;;;;;;17.63;96.61133;938.5266;;;;
2022/08/20 00:48:59;;;;;;;4.8;4.3;;;;;;;17.64;96.11426;938.5222;;;;
2022/08/20 00:51:26;;;;;;;5.1;4.6;;;;;;;17.62;95.80664;938.4749;;;;
2022/08/20 00:53:49;;;;;;;5.5;4.6;;;;;;;17.59;95.65234;938.4825;;;;
2022/08/20 00:56:14;;;;;;;5.3;4.7;;;;;;;17.54;95.90723;938.419;;;;
2022/08/20 00:58:40;;;;;;;4.9;4.4;;;;;;;17.62;95.1123;938.4316;;;;
2022/08/20 01:01:04;;;;;;;4.4;4;;;;;;;17.48;95.14063;938.4023;;;;
2022/08/20 01:03:34;;;;;;;4.6;4.2;;;;;;;17.49;95.66504;938.4286;;;;
2022/08/20 01:05:59;;;;;;;5.1;4.6;;;;;;;17.5;95.66699;938.3987;;;;
2022/08/20 01:08:28;;;;;;;5.3;4.8;;;;;;;17.53;95.8125;938.387;;;;
2022/08/20 01:11:08;;;;;;;4.9;4.1;;;;;;;17.6;95.0625;938.327;;;;
2022/08/20 01:13:26;;;;;;;5.1;4.6;;;;;;;17.5;96.18945;938.34;;;;
2022/08/20 01:15:58;;;;;;;4.6;4.2;;;;;;;17.53;96.60156;938.3475;;;;
2022/08/20 01:18:24;;;;;;;4.4;4;;;;;;;17.5;96.58203;938.299;;;;
2022/08/20 01:20:48;;;;;;;4.6;4.2;;;;;;;17.5;95.87598;938.2562;;;;
2022/08/20 01:23:28;;;;;;;4.8;4.3;;;;;;;17.47;96.48242;938.2327;;;;
2022/08/20 01:25:45;;;;;;;4.8;4.4;;;;;;;17.43;96.8457;938.1569;;;;
2022/08/20 01:28:14;;;;;;;4.9;4.4;;;;;;;17.46;96.31836;938.2175;;;;
2022/08/20 01:30:44;;;;;;;5;4.5;;;;;;;17.49;96.5332;938.1679;;;;
2022/08/20 01:33:10;;;;;;;5.6;4.7;;;;;;;17.53;96.96094;938.1639;;;;
2022/08/20 01:35:35;;;;;;;5;4.6;;;;;;;17.51;97.1543;938.1057;;;;
2022/08/20 01:38:00;;;;;;;4.9;4.4;;;;;;;17.49;97.28711;938.1639;;;;
2022/08/20 01:40:32;;;;;;;4.7;4.3;;;;;;;17.55;97.30078;938.1708;;;;
2022/08/20 01:43:07;;;;;;;5.5;4.9;;;;;;;17.55;97.3125;938.1177;;;;
2022/08/20 01:45:27;;;;;;;5.1;4.5;;;;;;;17.61;96.78125;938.139;;;;
2022/08/20 01:47:55;;;;;;;5.5;4.9;;;;;;;17.55;97.0791;938.1605;;;;
2022/08/20 01:50:21;;;;;;;5.6;4.8;;;;;;;17.63;95.83398;938.1433;;;;
2022/08/20 01:52:50;;;;;;;5;4.5;;;;;;;17.62;96.43555;938.1611;;;;
2022/08/20 01:55:16;;;;;;;5.7;4.3;;;;;;;17.6;96.60547;938.1522;;;;
2022/08/20 01:57:43;;;;;;;4.9;4.4;;;;;;;17.57;96.60938;938.1166;;;;
2022/08/20 02:00:09;;;;;;;6.5;4.3;;;;;;;17.49;97.52148;938.1533;;;;
2022/08/20 02:02:35;;;;;;;5.7;4.6;;;;;;;17.53;97.64551;938.1713;;;;
2022/08/20 02:05:04;;;;;;;4.5;4.1;;;;;;;17.51;97.4668;938.1716;;;;
2022/08/20 02:08:41;;;;;;;4.4;4;;;;;;;17.51;97.10742;938.1925;;;;
2022/08/20 02:11:09;;;;;;;4.8;4.4;;;;;;;17.5;96.48828;938.2023;;;;
2022/08/20 02:13:33;;;;;;;5.3;4.6;;;;;;;17.49;96.34766;938.1213;;;;
2022/08/20 02:15:58;;;;;;;4.9;4.2;;;;;;;17.46;96.48047;938.1652;;;;
2022/08/20 02:18:26;;;;;;;5.5;4.6;;;;;;;17.46;96.81738;938.187;;;;
2022/08/20 02:20:51;;;;;;;5.5;4.6;;;;;;;17.34;96.9541;938.1443;;;;
2022/08/20 02:23:17;;;;;;;4.7;4.3;;;;;;;17.21;97.78223;938.1615;;;;
2022/08/20 02:25:42;;;;;;;4.9;4.5;;;;;;;17.11;98.7793;938.1584;;;;
2022/08/20 02:28:10;;;;;;;5.2;4.7;;;;;;;17.17;99.47949;938.1533;;;;
2022/08/20 02:31:06;;;;;;;6.1;5;;;;;;;17.24;98.84473;938.1307;;;;
2022/08/20 02:33:27;;;;;;;5.1;4.6;;;;;;;17.27;98.66797;938.1141;;;;
2022/08/20 02:35:52;;;;;;;6.6;5.3;;;;;;;17.31;98.41895;938.1481;;;;
2022/08/20 02:38:18;;;;;;;7;5.5;;;;;;;17.35;98.82324;938.1869;;;;
2022/08/20 02:40:45;;;;;;;5.5;5;;;;;;;17.41;98.4082;938.1231;;;;
2022/08/20 02:43:10;;;;;;;5.5;4.6;;;;;;;17.49;97.63574;938.1437;;;;
2022/08/20 02:45:42;;;;;;;5.6;5;;;;;;;17.54;97.58887;938.0873;;;;
2022/08/20 02:48:04;;;;;;;5.7;4.8;;;;;;;17.53;97.98145;938.123;;;;
2022/08/20 02:50:30;;;;;;;5.5;5;;;;;;;17.51;98.56934;938.0927;;;;
2022/08/20 02:52:55;;;;;;;7.7;4.7;;;;;;;17.51;98.69727;938.1716;;;;
2022/08/20 02:55:25;;;;;;;4.8;4.4;;;;;;;17.29;99.62012;938.1187;;;;
2022/08/20 02:57:50;;;;;;;6.8;4.2;;;;;;;17.19;100;938.0386;;;;
2022/08/20 03:04:01;;;;;;;5.8;5;;;;;;;17.25;99.16211;938.108;;;;
2022/08/20 03:06:25;;;;;;;6.3;4.6;;;;;;;17.3;98.39355;938.059;;;;
2022/08/20 03:08:50;;;;;;;5.8;5;;;;;;;17.3;98.62695;938.0203;;;;
2022/08/20 03:11:19;;;;;;;5.8;5.2;;;;;;;17.34;98.03027;937.944;;;;
2022/08/20 03:13:43;;;;;;;5.2;4.7;;;;;;;17.38;97.64844;937.9706;;;;
2022/08/20 03:16:13;;;;;;;6.1;5.3;;;;;;;17.4;97.8584;937.9695;;;;
2022/08/20 03:18:42;;;;;;;5.5;4.3;;;;;;;17.36;97.6416;937.9977;;;;
2022/08/20 03:21:14;;;;;;;6.1;4.5;;;;;;;17.32;97.88867;938.0223;;;;
2022/08/20 03:23:40;;;;;;;4.2;3.8;;;;;;;17.21;98.99902;938.0392;;;;
2022/08/20 03:26:05;;;;;;;4.8;4.2;;;;;;;17.28;98.22656;938.0584;;;;
2022/08/20 03:28:30;;;;;;;4.4;4;;;;;;;17.34;97.78906;938.0043;;;;
2022/08/20 03:30:58;;;;;;;4.9;4.4;;;;;;;17.39;97.41602;938.0533;;;;
2022/08/20 03:33:24;;;;;;;4.6;4.2;;;;;;;17.42;97.62109;938.0153;;;;
2022/08/20 03:35:49;;;;;;;5.3;4.4;;;;;;;17.46;97.64063;938.0581;;;;
2022/08/20 03:38:16;;;;;;;5.1;4.6;;;;;;;17.4;97.97461;938.0323;;;;
2022/08/20 03:40:41;;;;;;;4.9;4.4;;;;;;;17.42;97.7832;938.0563;;;;
2022/08/20 03:43:09;;;;;;;5;4.5;;;;;;;17.39;97.83398;938.0591;;;;
2022/08/20 03:45:34;;;;;;;5.1;4.6;;;;;;;17.43;97.77441;938.1158;;;;
2022/08/20 03:48:02;;;;;;;5.9;4.8;;;;;;;17.44;97.7627;938.1044;;;;
2022/08/20 03:50:27;;;;;;;6.2;4.7;;;;;;;17.52;97.14258;938.103;;;;
2022/08/20 03:52:55;;;;;;;6.4;4.9;;;;;;;17.48;97.93652;938.0416;;;;
2022/08/20 03:55:59;;;;;;;5.2;4.7;;;;;;;17.35;98.52148;938.0717;;;;
2022/08/20 03:58:12;;;;;;;4.8;3.9;;;;;;;17.25;98.15332;938.1644;;;;
2022/08/20 04:02:33;;;;;;;4.6;4;;;;;;;17.28;97.82129;938.1526;;;;
2022/08/20 04:05:02;;;;;;;4.8;4.1;;;;;;;17.29;97.38281;938.1605;;;;
2022/08/20 04:07:27;;;;;;;6.1;4.2;;;;;;;17.29;97.14844;938.1534;;;;
2022/08/20 04:09:52;;;;;;;4.6;4.1;;;;;;;17.3;96.87598;938.2263;;;;
2022/08/20 04:12:17;;;;;;;5;4.1;;;;;;;17.28;97.72852;938.2469;;;;
2022/08/20 04:14:42;;;;;;;4.4;4;;;;;;;17.3;98.46484;938.2497;;;;
2022/08/20 04:17:08;;;;;;;4.6;4.2;;;;;;;17.31;98.25586;938.2173;;;;
2022/08/20 04:19:33;;;;;;;5.1;4.5;;;;;;;17.32;98.6084;938.2477;;;;
2022/08/20 04:22:01;;;;;;;4.6;4.2;;;;;;;17.38;98.64551;938.2122;;;;
2022/08/20 04:24:26;;;;;;;6.3;4.2;;;;;;;17.27;98.7002;938.2888;;;;
2022/08/20 04:27:15;;;;;;;5;4.2;;;;;;;17.38;98.14453;938.2838;;;;
2022/08/20 04:29:44;;;;;;;5.5;4.7;;;;;;;17.36;97.80469;938.2897;;;;
2022/08/20 04:32:09;;;;;;;5.1;4.6;;;;;;;17.26;98.16504;938.4017;;;;
2022/08/20 04:34:35;;;;;;;6.3;4.6;;;;;;;17.35;97.92969;938.4228;;;;
2022/08/20 04:37:01;;;;;;;5;4.2;;;;;;;17.38;97.79688;938.428;;;;
2022/08/20 04:39:27;;;;;;;5.1;4.5;;;;;;;17.35;97.84863;938.4758;;;;
2022/08/20 04:41:52;;;;;;;4.7;4.3;;;;;;;17.33;97.11426;938.4641;;;;
2022/08/20 04:44:20;;;;;;;5;4.4;;;;;;;17.33;97.7168;938.5381;;;;
2022/08/20 04:49:59;;;;;;;5.8;4.7;;;;;;;17.25;98.31348;938.5363;;;;
2022/08/20 04:52:27;;;;;;;5.3;4.8;;;;;;;17.28;98.58594;938.5366;;;;
2022/08/20 04:54:57;;;;;;;5.1;4.6;;;;;;;17.3;98.74121;938.5073;;;;
2022/08/20 04:57:22;;;;;;;6;5;;;;;;;17.3;99.0332;938.5161;;;;
2022/08/20 04:59:50;;;;;;;6.1;5.5;;;;;;;17.3;98.79883;938.5064;;;;
2022/08/20 05:02:17;;;;;;;7.1;5.3;;;;;;;17.32;98.62891;938.5689;;;;
2022/08/20 05:04:39;;;;;;;6.5;5.8;;;;;;;17.38;98.56445;938.588;;;;
2022/08/20 05:07:07;;;;;;;6.8;5.2;;;;;;;17.49;98.29688;938.6325;;;;
2022/08/20 05:09:34;;;;;;;6.9;5.4;;;;;;;17.53;97.83105;938.5979;;;;
2022/08/20 05:11:59;;;;;;;6.8;5.3;;;;;;;17.53;97.56445;938.6519;;;;
2022/08/20 05:16:56;;;;;;;6.7;5.3;;;;;;;17.55;97.79785;938.6984;;;;
2022/08/20 05:19:16;;;;;;;6;5.4;;;;;;;17.55;97.62598;938.699;;;;
2022/08/20 05:21:46;;;;;;;6.1;5.5;;;;;;;17.45;97.72168;938.7481;;;;
2022/08/20 05:24:11;;;;;;;6.8;5.5;;;;;;;17.45;98.26563;938.6701;;;;
2022/08/20 05:26:38;;;;;;;6.7;5.6;;;;;;;17.53;98.41113;938.7726;;;;
2022/08/20 05:29:20;;;;;;;6.2;5.5;;;;;;;17.57;98.39551;938.7802;;;;
2022/08/20 05:31:46;;;;;;;6.9;5.4;;;;;;;17.59;97.86816;938.7628;;;;
2022/08/20 05:34:12;;;;;;;5.6;5;;;;;;;17.59;97.61328;938.7257;;;;
2022/08/20 05:36:38;;;;;;;6;5;;;;;;;17.61;97.53613;938.7528;;;;
2022/08/20 05:39:04;;;;;;;5.5;4.9;;;;;;;17.6;97.11621;938.7505;;;;
2022/08/20 05:41:29;;;;;;;6.7;4.9;;;;;;;17.61;97.01367;938.798;;;;
2022/08/20 05:43:58;;;;;;;5.3;4.8;;;;;;;17.68;97.0625;938.8006;;;;
2022/08/20 05:47:27;;;;;;;5.2;4.7;;;;;;;17.61;97.1875;938.8348;;;;
2022/08/20 05:49:48;;;;;;;16.8;5.4;;;;;;;17.55;98.0791;938.7698;;;;
2022/08/20 05:52:17;;;;;;;5.3;4.8;;;;;;;17.58;97.87598;938.7944;;;;
2022/08/20 05:54:40;;;;;;;5.3;4.8;;;;;;;17.61;97.8584;938.7698;;;;
2022/08/20 05:57:08;;;;;;;8.7;5.2;;;;;;;17.62;98.02539;938.8463;;;;
2022/08/20 05:59:35;;;;;;;9.1;5.4;;;;;;;17.53;98.30664;938.8387;;;;
2022/08/20 06:01:58;;;;;;;5.1;4.6;;;;;;;17.54;98.72656;938.9094;;;;
2022/08/20 06:04:27;;;;;;;5.8;4.7;;;;;;;17.53;98.58496;938.8694;;;;
2022/08/20 06:06:51;;;;;;;5.4;4.9;;;;;;;17.49;98.58691;938.882;;;;
2022/08/20 06:09:19;;;;;;;5;4.5;;;;;;;17.57;98.32617;938.909;;;;
2022/08/20 06:11:44;;;;;;;5.4;4.9;;;;;;;17.52;98.43066;938.9492;;;;
2022/08/20 06:14:11;;;;;;;5.9;5.3;;;;;;;17.5;98.41699;938.9333;;;;
2022/08/20 06:16:36;;;;;;;5.4;4.9;;;;;;;17.47;98.2002;939.0111;;;;
2022/08/20 06:19:03;;;;;;;5.9;5.1;;;;;;;17.53;97.71484;939.0303;;;;
2022/08/20 06:21:29;;;;;;;6.4;4.7;;;;;;;17.53;97.56445;939.0675;;;;
2022/08/20 06:23:58;;;;;;;6.1;5;;;;;;;17.52;98.38574;939.0675;;;;
2022/08/20 06:26:22;;;;;;;5.4;4.8;;;;;;;17.6;98.42773;939.0879;;;;
2022/08/20 06:28:50;;;;;;;5.9;5.2;;;;;;;17.52;98.94043;939.0458;;;;
2022/08/20 06:31:15;;;;;;;5.9;5.3;;;;;;;17.55;98.49414;938.993;;;;
2022/08/20 06:33:43;;;;;;;6.4;5.4;;;;;;;17.53;99.21191;939.0103;;;;
2022/08/20 06:36:08;;;;;;;6.3;5.5;;;;;;;17.6;98.55469;939.017;;;;
2022/08/20 06:38:38;;;;;;;5.6;4.9;;;;;;;17.64;97.85547;939.0305;;;;
2022/08/20 06:41:03;;;;;;;5.7;5.1;;;;;;;17.75;97.18262;939.0708;;;;
2022/08/20 06:43:33;;;;;;;6.1;5.4;;;;;;;17.75;97.24121;939.0515;;;;
2022/08/20 06:46:40;;;;;;;6.1;5.5;;;;;;;17.74;98.09766;939.1353;;;;
2022/08/20 06:49:08;;;;;;;5.6;4.9;;;;;;;17.71;98.60254;939.1568;;;;
2022/08/20 06:51:33;;;;;;;5.3;4.8;;;;;;;17.66;97.4873;939.1993;;;;
2022/08/20 06:54:03;;;;;;;5;4.2;;;;;;;17.53;97.91211;939.1817;;;;
2022/08/20 06:56:28;;;;;;;4.6;4.2;;;;;;;17.61;97.55859;939.1554;;;;
2022/08/20 06:58:57;;;;;;;6;4.8;;;;;;;17.62;97.90723;939.1636;;;;
2022/08/20 07:01:29;;;;;;;4.9;4.3;;;;;;;17.68;97.68945;939.1091;;;;
2022/08/20 07:04:02;;;;;;;5;4.5;;;;;;;17.65;96.94043;939.2235;;;;
2022/08/20 07:06:27;;;;;;;5.2;4.1;;;;;;;17.63;96.91309;939.1909;;;;
2022/08/20 07:08:57;;;;;;;5;4.2;;;;;;;17.65;96.96387;939.2003;;;;
2022/08/20 07:11:22;;;;;;;4.5;4.1;;;;;;;17.72;97.25586;939.2026;;;;
2022/08/20 07:14:32;;;;;;;4.9;4.5;;;;;;;17.76;97.5;939.2849;;;;
2022/08/20 07:17:01;;;;;;;4;3.6;;;;;;;17.74;96.75098;939.2239;;;;
2022/08/20 07:19:26;;;;;;;4.9;4.1;;;;;;;17.78;97.99219;939.2467;;;;
2022/08/20 07:21:51;;;;;;;4.6;4.1;;;;;;;17.88;97.88379;939.1785;;;;
2022/08/20 07:24:18;;;;;;;5.9;3.9;;;;;;;17.89;96.77344;939.1872;;;;
2022/08/20 07:26:43;;;;;;;4.9;3.9;;;;;;;17.93;96.72559;939.2104;;;;
2022/08/20 07:29:12;;;;;;;5;4.1;;;;;;;17.95;96.57617;939.2256;;;;
2022/08/20 07:34:12;;;;;;;4.4;3.8;;;;;;;18.08;96.18555;939.2751;;;;
2022/08/20 07:36:39;;;;;;;4.4;4;;;;;;;18.11;95.71777;939.3342;;;;
2022/08/20 07:39:05;;;;;;;4;3.6;;;;;;;18.13;94.87305;939.2911;;;;
2022/08/20 07:41:33;;;;;;;4.4;4;;;;;;;18.15;95.00488;939.3561;;;;
2022/08/20 07:44:22;;;;;;;4.6;4.1;;;;;;;18.2;95.37695;939.3633;;;;
2022/08/20 07:46:53;;;;;;;4.8;3.7;;;;;;;18.07;95.29102;939.4042;;;;
2022/08/20 07:49:24;;;;;;;3.9;3.4;;;;;;;18.04;94.98145;939.4025;;;;
2022/08/20 07:56:08;;;;;;;3.6;3;;;;;;;17.99;95.29688;939.4504;;;;
2022/08/20 07:58:15;;;;;;;3.9;3.5;;;;;;;17.86;95.79004;939.4793;;;;
2022/08/20 08:00:58;;;;;;;4.9;3.8;;;;;;;17.85;96.26465;939.5366;;;;
2022/08/20 08:03:28;;;;;;;4.2;3.8;;;;;;;17.93;96.56055;939.5853;;;;
2022/08/20 08:05:59;;;;;;;4.3;3.4;;;;;;;17.94;96.33008;939.5964;;;;
2022/08/20 08:08:24;;;;;;;3.6;3.3;;;;;;;17.99;96.04004;939.6567;;;;
2022/08/20 08:10:55;;;;;;;3.7;3.4;;;;;;;18.07;96.17383;939.6685;;;;
2022/08/20 08:13:20;;;;;;;3.6;3.2;;;;;;;18.13;95.83789;939.6548;;;;
2022/08/20 08:15:45;;;;;;;3.9;3.6;;;;;;;18.2;95.36523;939.6453;;;;
2022/08/20 08:18:12;;;;;;;5.2;3.7;;;;;;;18.12;95.48926;939.6814;;;;
2022/08/20 08:20:39;;;;;;;3.5;3.2;;;;;;;18.05;95.98242;939.6472;;;;
2022/08/20 08:23:03;;;;;;;4;3.3;;;;;;;18.11;95.9502;939.6486;;;;
2022/08/20 08:25:31;;;;;;;4.1;3.5;;;;;;;18.17;96.6377;939.712;;;;
2022/08/20 08:27:56;;;;;;;3.5;3.2;;;;;;;18.21;95.31836;939.713;;;;
2022/08/20 08:30:24;;;;;;;5.3;3.4;;;;;;;18.12;96.45313;939.6726;;;;
2022/08/20 08:35:16;;;;;;;6.8;3.8;;;;;;;18.32;96.95996;939.7064;;;;
2022/08/20 08:37:46;;;;;;;4.2;3.8;;;;;;;18.29;96.25488;939.7417;;;;
2022/08/20 08:40:10;;;;;;;4.1;3.8;;;;;;;18.46;95.27051;939.7952;;;;
2022/08/20 08:42:40;;;;;;;3.7;3.3;;;;;;;18.23;93.76758;939.7563;;;;
2022/08/20 08:45:05;;;;;;;4.1;3.7;;;;;;;18.17;94.94141;939.799;;;;
2022/08/20 08:47:30;;;;;;;3.9;3.5;;;;;;;18.26;94.5752;939.8527;;;;
2022/08/20 08:49:57;;;;;;;4.1;3.7;;;;;;;18.37;95.04395;939.8571;;;;
2022/08/20 08:52:22;;;;;;;3.3;3;;;;;;;18.48;93.49609;939.8836;;;;
2022/08/20 08:54:50;;;;;;;3.6;3.3;;;;;;;18.54;93.48633;939.8872;;;;
2022/08/20 08:57:15;;;;;;;3.7;3.3;;;;;;;18.7;92.37988;939.8429;;;;
2022/08/20 08:59:43;;;;;;;4;3.6;;;;;;;18.86;92.75;939.8257;;;;
2022/08/20 09:02:09;;;;;;;3.5;3.1;;;;;;;18.74;92.13184;939.793;;;;
2022/08/20 09:04:34;;;;;;;3.7;3.3;;;;;;;18.79;91.4082;939.8582;;;;
2022/08/20 09:06:59;;;;;;;3.5;3.2;;;;;;;18.67;91.87402;939.7054;;;;
2022/08/20 09:09:24;;;;;;;4.4;3.4;;;;;;;18.82;92.69434;939.7841;;;;
2022/08/20 09:11:53;;;;;;;3.5;3.2;;;;;;;18.78;91.02441;939.8163;;;;
2022/08/20 09:14:19;;;;;;;3.6;3.3;;;;;;;18.89;90.4043;939.8759;;;;
2022/08/20 09:16:44;;;;;;;3.6;3.2;;;;;;;18.91;91.47949;939.8635;;;;
2022/08/20 09:19:10;;;;;;;4.1;2.9;;;;;;;19.08;91.2373;939.8714;;;;
2022/08/20 09:21:35;;;;;;;3.6;3.1;;;;;;;19.28;91.27637;939.8667;;;;
2022/08/20 09:24:00;;;;;;;3.8;3;;;;;;;19.32;88.93262;939.8569;;;;
2022/08/20 09:26:25;;;;;;;3.2;2.9;;;;;;;19.26;89.67871;939.7985;;;;
2022/08/20 09:28:54;;;;;;;2.3;2.1;;;;;;;19.14;89.93262;939.7684;;;;
2022/08/20 09:31:19;;;;;;;2.2;2;;;;;;;19.21;89.78418;939.7339;;;;
2022/08/20 09:33:46;;;;;;;2.1;1.8;;;;;;;19.06;88.11133;939.7258;;;;
2022/08/20 09:36:11;;;;;;;2.3;2;;;;;;;19.01;90.76855;939.7361;;;;
2022/08/20 09:39:44;;;;;;;2.2;1.7;;;;;;;19.14;89.79297;939.7393;;;;
2022/08/20 09:41:55;;;;;;;1.9;1.7;;;;;;;19.43;88.55859;939.7136;;;;
2022/08/20 09:44:20;;;;;;;2.2;1.6;;;;;;;19.57;87.86426;939.7809;;;;
2022/08/20 09:46:48;;;;;;;1.8;1.5;;;;;;;19.65;86.2832;939.6752;;;;
2022/08/20 09:49:18;;;;;;;1.6;1.5;;;;;;;19.58;87.92285;939.6935;;;;
2022/08/20 09:51:43;;;;;;;1.5;1.2;;;;;;;19.54;87.33496;939.746;;;;
2022/08/20 09:54:12;;;;;;;1.6;1.5;;;;;;;19.65;87.48242;939.7189;;;;
2022/08/20 09:56:37;;;;;;;2.2;1.5;;;;;;;19.72;88.28027;939.7123;;;;
2022/08/20 09:59:03;;;;;;;1.7;1.6;;;;;;;19.83;88.88477;939.6339;;;;
2022/08/20 10:01:28;;;;;;;1.6;1.5;;;;;;;20.04;87.59668;939.6897;;;;
2022/08/20 10:03:55;;;;;;;1.7;1.5;;;;;;;20.16;86.91895;939.6091;;;;
2022/08/20 10:06:20;;;;;;;4.1;3;;;;;;;20.14;88.99121;939.5895;;;;
2022/08/20 10:08:48;;;;;;;3.5;2.8;;;;;;;20.37;88.92188;939.5669;;;;
2022/08/20 10:11:16;;;;;;;11.4;5.3;;;;;;;20.95;87.37988;939.4938;;;;
2022/08/20 10:13:41;;;;;;;49.8;20.7;;;;;;;21.43;84.60449;939.55;;;;
2022/08/20 10:19:12;;;;;;;8.2;3.8;;;;;;;21.93;78.3125;939.5226;;;;
2022/08/20 10:21:40;;;;;;;2.6;1.8;;;;;;;21.31;79.47949;939.4842;;;;
2022/08/20 10:24:05;;;;;;;3.5;2;;;;;;;21.23;81.01172;939.4588;;;;
2022/08/20 10:26:33;;;;;;;2.6;1.9;;;;;;;21.25;81.35352;939.4099;;;;
2022/08/20 10:32:51;;;;;;;1.8;1.3;;;;;;;23.47;71.20215;939.3954;;;;
2022/08/20 10:35:23;;;;;;;2.1;1.5;;;;;;;24.52;66.76074;939.3301;;;;
2022/08/20 10:37:53;;;;;;;1.4;1.3;;;;;;;24.89;66.23828;939.2804;;;;
2022/08/20 10:40:24;;;;;;;1.8;1.7;;;;;;;24.83;63.1748;939.287;;;;
2022/08/20 10:42:56;;;;;;;1.4;1.3;;;;;;;24.32;63.73828;939.2497;;;;
2022/08/20 10:45:26;;;;;;;2.4;1.5;;;;;;;24.28;66.27832;939.2615;;;;
2022/08/20 10:47:54;;;;;;;1.4;1.3;;;;;;;24.44;65.80566;939.2278;;;;
2022/08/20 10:50:20;;;;;;;1.4;1.3;;;;;;;24.4;64.90332;939.2286;;;;
2022/08/20 10:52:49;;;;;;;1.3;1.2;;;;;;;24.38;65.09082;939.1625;;;;
2022/08/20 10:55:14;;;;;;;1.4;1.3;;;;;;;25.38;63.11035;939.137;;;;
2022/08/20 10:57:44;;;;;;;1.4;1.2;;;;;;;25.4;60.20801;939.0926;;;;
2022/08/20 11:00:16;;;;;;;1.3;1.2;;;;;;;26.1;57.06055;938.9838;;;;
2022/08/20 11:02:42;;;;;;;1.5;1.4;;;;;;;27.52;54.78516;938.9455;;;;
2022/08/20 11:05:41;;;;;;;1.6;1.2;;;;;;;27.6;51.85156;938.9648;;;;
2022/08/20 11:07:56;;;;;;;1.1;1.1;;;;;;;27.57;53.43945;938.8876;;;;
2022/08/20 11:10:26;;;;;;;1.5;1.4;;;;;;;28.3;50.46973;938.8538;;;;
2022/08/20 11:12:57;;;;;;;1.2;1.1;;;;;;;29.32;46.64063;938.8667;;;;
2022/08/20 11:15:22;;;;;;;1.4;1.3;;;;;;;29.97;44.56055;938.8231;;;;
2022/08/20 11:17:47;;;;;;;1.3;1.2;;;;;;;30.14;43.16992;938.7427;;;;
2022/08/20 11:20:15;;;;;;;1.1;1.1;;;;;;;27.91;46.40039;938.7901;;;;
2022/08/20 11:22:40;;;;;;;1;1;;;;;;;29.61;42.70215;938.7194;;;;
2022/08/20 11:25:09;;;;;;;1.1;1.1;;;;;;;28.97;45.17676;938.5875;;;;
2022/08/20 11:27:34;;;;;;;1.2;1.1;;;;;;;29.78;44.60254;938.5739;;;;
2022/08/20 11:30:03;;;;;;;1;1;;;;;;;30.16;46.62109;938.572;;;;
2022/08/20 11:32:30;;;;;;;1.2;1.1;;;;;;;30.03;44.87695;938.5059;;;;
2022/08/20 11:34:55;;;;;;;1.5;1.4;;;;;;;29.65;44.7207;938.4655;;;;
2022/08/20 11:37:23;;;;;;;1.4;1.1;;;;;;;30.55;41.97852;938.4483;;;;
2022/08/20 11:39:48;;;;;;;1.4;1.3;;;;;;;30.33;43.10352;938.3901;;;;
2022/08/20 11:42:13;;;;;;;1.8;1.4;;;;;;;30.15;44.06543;938.432;;;;
2022/08/20 11:44:42;;;;;;;1.4;1.3;;;;;;;29.59;43.0459;938.351;;;;
2022/08/20 11:47:07;;;;;;;1.1;1.1;;;;;;;30.01;42.67871;938.3641;;;;
2022/08/20 11:49:34;;;;;;;1;1;;;;;;;30.16;39.49512;938.37;;;;
2022/08/20 11:51:59;;;;;;;1.2;1.1;;;;;;;30.29;40.71289;938.342;;;;
2022/08/20 11:54:28;;;;;;;1.4;1.3;;;;;;;30.9;41.38965;938.3503;;;;
2022/08/20 11:56:52;;;;;;;1.2;1.1;;;;;;;31.71;43.89355;938.4592;;;;
2022/08/20 11:59:21;;;;;;;1.6;1.4;;;;;;;31.97;40.85156;938.4261;;;;
2022/08/20 12:01:49;;;;;;;1.3;1.2;;;;;;;32.32;40.42773;938.3926;;;;
2022/08/20 12:04:14;;;;;;;1.3;1.2;;;;;;;30.94;39.36035;938.3847;;;;
2022/08/20 12:06:43;;;;;;;1.9;1.4;;;;;;;30.09;44;938.3889;;;;
2022/08/20 12:09:08;;;;;;;2.5;1.5;;;;;;;29.44;48.14355;938.4006;;;;
2022/08/20 12:11:36;;;;;;;1.5;1.4;;;;;;;29.72;45.18066;938.3223;;;;
2022/08/20 12:14:01;;;;;;;1.2;1.2;;;;;;;29.07;44.41309;938.3516;;;;
2022/08/20 12:16:31;;;;;;;1.9;1.6;;;;;;;28.77;47.27539;938.3448;;;;
2022/08/20 12:18:58;;;;;;;1.6;1.5;;;;;;;27.77;49.08105;938.3517;;;;
2022/08/20 12:21:23;;;;;;;1.7;1.6;;;;;;;27.45;49.47363;938.421;;;;
2022/08/20 12:23:51;;;;;;;2.1;1.9;;;;;;;26.95;50.78125;938.418;;;;
2022/08/20 12:26:17;;;;;;;1.9;1.7;;;;;;;26.43;50.95996;938.4053;;;;
2022/08/20 12:28:44;;;;;;;1.9;1.7;;;;;;;25.77;55.35156;938.3908;;;;
2022/08/20 12:31:09;;;;;;;1.7;1.6;;;;;;;25.74;55.41895;938.4014;;;;
2022/08/20 12:33:35;;;;;;;2.5;1.9;;;;;;;25.66;56.21289;938.4019;;;;
2022/08/20 12:36:01;;;;;;;1.9;1.8;;;;;;;25.52;56.1123;938.4147;;;;
2022/08/20 12:38:26;;;;;;;2;1.8;;;;;;;25.33;56.41992;938.3967;;;;
2022/08/20 12:40:51;;;;;;;2.2;1.8;;;;;;;25.33;56.92773;938.4052;;;;
2022/08/20 12:43:19;;;;;;;2.4;2;;;;;;;24.99;60.14063;938.4102;;;;
2022/08/20 12:45:45;;;;;;;2.1;1.9;;;;;;;24.76;60.26367;938.377;;;;
2022/08/20 12:48:12;;;;;;;1.9;1.8;;;;;;;24.74;59.53027;938.3459;;;;
2022/08/20 12:50:37;;;;;;;2;1.9;;;;;;;24.74;59.25879;938.3525;;;;
2022/08/20 12:53:04;;;;;;;2.1;2;;;;;;;24.8;59.41895;938.42;;;;
2022/08/20 12:55:29;;;;;;;2.2;2;;;;;;;24.84;59.67188;938.4291;;;;
2022/08/20 12:57:59;;;;;;;2;1.7;;;;;;;24.71;60.46875;938.3474;;;;
2022/08/20 13:00:23;;;;;;;2.7;1.8;;;;;;;24.6;61.66699;938.3611;;;;
2022/08/20 13:02:53;;;;;;;2.9;2;;;;;;;24.72;60.0332;938.372;;;;
2022/08/20 13:05:18;;;;;;;2;1.8;;;;;;;24.79;59.50098;938.3667;;;;
2022/08/20 13:07:46;;;;;;;1.9;1.8;;;;;;;24.62;60.2207;938.344;;;;
2022/08/20 13:10:11;;;;;;;1.9;1.8;;;;;;;24.54;61.11719;938.2936;;;;
2022/08/20 13:12:41;;;;;;;2.2;1.9;;;;;;;24.34;60.12402;938.2967;;;;
2022/08/20 13:15:14;;;;;;;2.2;2;;;;;;;24.4;61.85156;938.2556;;;;
2022/08/20 13:17:39;;;;;;;2;1.9;;;;;;;24.34;61.8916;938.2753;;;;
2022/08/20 13:20:11;;;;;;;2;1.8;;;;;;;24.78;60.58496;938.2131;;;;
2022/08/20 13:22:36;;;;;;;1.8;1.7;;;;;;;25.01;60.70996;938.1406;;;;
2022/08/20 13:25:06;;;;;;;2.3;1.9;;;;;;;25.31;59.00391;938.1078;;;;
2022/08/20 13:27:31;;;;;;;2.6;2;;;;;;;25.14;59.2168;938.0864;;;;
2022/08/20 13:29:56;;;;;;;3.1;1.9;;;;;;;25.16;59.69141;938.092;;;;
2022/08/20 13:32:21;;;;;;;2.1;1.9;;;;;;;25.01;59.34082;938.1103;;;;
2022/08/20 13:34:46;;;;;;;2.2;2;;;;;;;24.82;60.73145;938.1298;;;;
2022/08/20 13:37:12;;;;;;;2.1;1.9;;;;;;;24.81;59.68164;938.1603;;;;
2022/08/20 13:39:38;;;;;;;2.2;2;;;;;;;24.85;58.7998;938.2054;;;;
2022/08/20 13:42:03;;;;;;;2;1.9;;;;;;;24.81;58.66406;938.2103;;;;
2022/08/20 13:44:31;;;;;;;2.2;1.8;;;;;;;24.66;58.90625;938.2542;;;;
2022/08/20 13:46:56;;;;;;;2.3;2.1;;;;;;;24.5;59.3916;938.2548;;;;
2022/08/20 13:49:22;;;;;;;2.3;2.1;;;;;;;24.26;60.63086;938.2966;;;;
2022/08/20 13:51:47;;;;;;;2.1;2;;;;;;;24;62.22168;938.3754;;;;
2022/08/20 13:54:13;;;;;;;2.4;2.1;;;;;;;23.46;65.49609;938.5367;;;;
2022/08/20 13:56:38;;;;;;;2.7;2.5;;;;;;;23.26;67.65332;938.5809;;;;
2022/08/20 13:59:05;;;;;;;2.4;2.1;;;;;;;23.09;68.47461;938.7671;;;;
2022/08/20 14:01:30;;;;;;;2.4;2.2;;;;;;;22.7;69.84668;938.8922;;;;
2022/08/20 14:03:56;;;;;;;2.3;2.1;;;;;;;22.43;71.84375;938.9188;;;;
2022/08/20 14:06:21;;;;;;;2.7;2.1;;;;;;;22.46;72.49316;939.0346;;;;
2022/08/20 14:08:52;;;;;;;3.4;2.8;;;;;;;22.04;77.74707;938.9874;;;;
2022/08/20 14:11:22;;;;;;;4.3;2.8;;;;;;;21.69;78.02539;938.9348;;;;
2022/08/20 14:13:47;;;;;;;2.4;2.2;;;;;;;20.96;80.38867;938.9389;;;;
2022/08/20 14:16:18;;;;;;;3.8;2.3;;;;;;;20.93;80.24219;938.9724;;;;
2022/08/20 14:18:50;;;;;;;3;2.5;;;;;;;20.89;83.01758;938.988;;;;
2022/08/20 14:21:15;;;;;;;4.1;2.5;;;;;;;20.74;84.35645;938.9662;;;;
2022/08/20 14:23:42;;;;;;;2.5;2.3;;;;;;;20.78;83.52344;939.0022;;;;
2022/08/20 14:26:06;;;;;;;2.5;2.1;;;;;;;20.77;83.58008;939.0503;;;;
2022/08/20 14:28:33;;;;;;;3.3;2.7;;;;;;;20.65;85.5332;939.0488;;;;
2022/08/20 14:30:58;;;;;;;2.7;2;;;;;;;20.72;83.17285;939.0201;;;;
2022/08/20 14:33:25;;;;;;;3;1.8;;;;;;;20.83;81.4043;938.9713;;;;
2022/08/20 14:35:50;;;;;;;2;1.8;;;;;;;21.14;80.56055;938.9681;;;;
2022/08/20 14:38:16;;;;;;;2.1;1.9;;;;;;;21.22;80.20117;938.9713;;;;
2022/08/20 14:40:41;;;;;;;2.5;2;;;;;;;21.54;78.93652;938.9986;;;;
2022/08/20 14:43:12;;;;;;;2.2;1.9;;;;;;;21.86;76.30957;938.976;;;;
2022/08/20 14:45:42;;;;;;;1.9;1.7;;;;;;;22.18;75.94336;938.991;;;;
2022/08/20 14:48:13;;;;;;;1.9;1.8;;;;;;;22.14;75.60938;938.963;;;;
2022/08/20 14:50:44;;;;;;;2;1.8;;;;;;;22.07;74.94043;938.9752;;;;
2022/08/20 14:53:15;;;;;;;1.9;1.7;;;;;;;21.94;74.19141;938.9385;;;;
2022/08/20 14:55:40;;;;;;;2;1.8;;;;;;;21.89;76.24414;938.9612;;;;
2022/08/20 14:58:07;;;;;;;2.4;1.8;;;;;;;22.01;75.83203;938.9936;;;;
2022/08/20 15:00:33;;;;;;;2.4;1.8;;;;;;;21.94;76.48828;939.0293;;;;